Oasis of the Seas — C6XS7 — position and weather

sailwx.info

Track history (hours):
 
Tides and Currents Weather Stations Pressure Air Temp Water Temp Dewpoint Dewpoint Depression Visibility Wind Speed Wind Dir Waves Ship Positions

Oasis of the Seas

Last reported at 2014-Oct-31 00:05 UTC. Time now 2014-Oct-31 04:45 UTC.
Position N 20°34' W 086°59'.

Length 360 m; draft 9.3 m.

Type: Passenger vessel. MMSI: 311020600.

Date/timePositionNaut miles runAvg speedWind from/ knotsBaromVisibWave heightAir tempDewpointWater temp
2014-Oct-31 00:05N 20°34' W 086°59'5 7.7
2014-Oct-30 23:29N 20°29' W 086°59'0 0.0
2014-Oct-30 22:29N 20°29' W 086°59'0 0.0
2014-Oct-30 21:29N 20°29' W 086°59'0 0.0
2014-Oct-30 20:29N 20°29' W 086°59'0 0.0
2014-Oct-30 19:29N 20°29' W 086°59'0 0.0
2014-Oct-30 18:29N 20°29' W 086°59'0 0.0
2014-Oct-30 17:29N 20°29' W 086°59'0 0.0
2014-Oct-30 16:29N 20°29' W 086°59'0 0.0
2014-Oct-30 15:29N 20°29' W 086°59'0 0.0
2014-Oct-30 14:29N 20°29' W 086°59'0 0.0
2014-Oct-30 13:29N 20°29' W 086°59'0 0.4
2014-Oct-30 12:34N 20°29' W 086°59'51217.0
2014-Oct-29 06:33N 25°43' W 079°40'1717.2
2014-Oct-29 05:33N 25°57' W 079°28'1717.1
2014-Oct-29 04:33N 26°10' W 079°16'25 0.9
2014-Oct-28 01:07N 26°08' W 079°44'1018.4
2014-Oct-28 00:33N 26°07' W 079°55'1110.2
2014-Oct-27 23:29N 26°05' W 080°07'0 0.0
2014-Oct-27 22:32N 26°05' W 080°07'0 0.0
2014-Oct-27 21:32N 26°05' W 080°07'0 0.0
2014-Oct-27 20:32N 26°05' W 080°07'0 0.0
2014-Oct-27 19:27N 26°05' W 080°07'0 0.0
2014-Oct-27 18:32N 26°05' W 080°07'0 0.0
2014-Oct-27 17:32N 26°05' W 080°07'0 0.0
2014-Oct-27 16:25N 26°05' W 080°07'0 0.0
2014-Oct-27 15:26N 26°05' W 080°07'0 0.0
2014-Oct-27 14:29N 26°05' W 080°07'0 0.0
2014-Oct-27 13:29N 26°05' W 080°07'0 0.0
2014-Oct-27 12:32N 26°05' W 080°07'0 0.0
2014-Oct-27 11:21N 26°05' W 080°07'0 0.0
2014-Oct-27 10:33N 26°05' W 080°07'0 0.0
2014-Oct-27 09:33N 26°05' W 080°07'0 0.0
2014-Oct-27 08:24N 26°05' W 080°07'2 1.9
2014-Oct-27 07:33N 26°06' W 080°05'1110.8
2014-Oct-27 06:33N 26°14' W 079°57'1313.1
2014-Oct-27 05:33N 26°26' W 079°52'1313.0
2014-Oct-27 04:33N 26°38' W 079°46'  
Track history (hours):
 
Tides and Currents Weather Stations Pressure Air Temp Water Temp Dewpoint Dewpoint Depression Visibility Wind Speed Wind Dir Waves Ship Positions

Oasis of the Seas

Last reported at 2014-Oct-31 00:05 UTC. Time now 2014-Oct-31 04:45 UTC.
Position N 20°34' W 086°59'.

Length 360 m; draft 9.3 m.

Type: Passenger vessel. MMSI: 311020600.

Date/timePositionNaut miles runAvg speedWind from/ knotsBaromVisibWave heightAir tempDewpointWater temp
2014-Oct-31 00:05N 20°34' W 086°59'5 7.7
2014-Oct-30 23:29N 20°29' W 086°59'0 0.0
2014-Oct-30 22:29N 20°29' W 086°59'0 0.0
2014-Oct-30 21:29N 20°29' W 086°59'0 0.0
2014-Oct-30 20:29N 20°29' W 086°59'0 0.0
2014-Oct-30 19:29N 20°29' W 086°59'0 0.0
2014-Oct-30 18:29N 20°29' W 086°59'0 0.0
2014-Oct-30 17:29N 20°29' W 086°59'0 0.0
2014-Oct-30 16:29N 20°29' W 086°59'0 0.0
2014-Oct-30 15:29N 20°29' W 086°59'0 0.0
2014-Oct-30 14:29N 20°29' W 086°59'0 0.0
2014-Oct-30 13:29N 20°29' W 086°59'0 0.4
2014-Oct-30 12:34N 20°29' W 086°59'51217.0
2014-Oct-29 06:33N 25°43' W 079°40'1717.2
2014-Oct-29 05:33N 25°57' W 079°28'1717.1
2014-Oct-29 04:33N 26°10' W 079°16'25 0.9
2014-Oct-28 01:07N 26°08' W 079°44'1018.4
2014-Oct-28 00:33N 26°07' W 079°55'1110.2
2014-Oct-27 23:29N 26°05' W 080°07'0 0.0
2014-Oct-27 22:32N 26°05' W 080°07'0 0.0
2014-Oct-27 21:32N 26°05' W 080°07'0 0.0
2014-Oct-27 20:32N 26°05' W 080°07'0 0.0
2014-Oct-27 19:27N 26°05' W 080°07'0 0.0
2014-Oct-27 18:32N 26°05' W 080°07'0 0.0
2014-Oct-27 17:32N 26°05' W 080°07'0 0.0
2014-Oct-27 16:25N 26°05' W 080°07'0 0.0
2014-Oct-27 15:26N 26°05' W 080°07'0 0.0
2014-Oct-27 14:29N 26°05' W 080°07'0 0.0
2014-Oct-27 13:29N 26°05' W 080°07'0 0.0
2014-Oct-27 12:32N 26°05' W 080°07'0 0.0
2014-Oct-27 11:21N 26°05' W 080°07'0 0.0
2014-Oct-27 10:33N 26°05' W 080°07'0 0.0
2014-Oct-27 09:33N 26°05' W 080°07'0 0.0
2014-Oct-27 08:24N 26°05' W 080°07'2 1.9
2014-Oct-27 07:33N 26°06' W 080°05'1110.8
2014-Oct-27 06:33N 26°14' W 079°57'1313.1
2014-Oct-27 05:33N 26°26' W 079°52'1313.0
2014-Oct-27 04:33N 26°38' W 079°46'  

Dump ship's entire track history